sensor_id;sensor_type;location;lat;lon;timestamp;temperature;humidity
7496;DHT22;3789;47.064;15.482;2023-04-25T00:00:07;8.50;99.90
7496;DHT22;3789;47.064;15.482;2023-04-25T00:02:36;8.60;99.90
7496;DHT22;3789;47.064;15.482;2023-04-25T00:08:54;8.50;99.90
7496;DHT22;3789;47.064;15.482;2023-04-25T00:11:26;8.60;99.90
7496;DHT22;3789;47.064;15.482;2023-04-25T00:13:54;8.60;99.90
7496;DHT22;3789;47.064;15.482;2023-04-25T00:16:25;8.60;99.90
7496;DHT22;3789;47.064;15.482;2023-04-25T00:19:03;8.50;99.90
7496;DHT22;3789;47.064;15.482;2023-04-25T00:21:32;8.50;99.90
7496;DHT22;3789;47.064;15.482;2023-04-25T00:24:03;8.50;99.90
7496;DHT22;3789;47.064;15.482;2023-04-25T00:26:34;8.50;99.90
7496;DHT22;3789;47.064;15.482;2023-04-25T00:29:05;8.40;99.90
7496;DHT22;3789;47.064;15.482;2023-04-25T00:31:34;8.40;99.90
7496;DHT22;3789;47.064;15.482;2023-04-25T00:34:02;8.30;99.90
7496;DHT22;3789;47.064;15.482;2023-04-25T00:36:34;8.20;99.90
7496;DHT22;3789;47.064;15.482;2023-04-25T00:39:05;8.20;99.90
7496;DHT22;3789;47.064;15.482;2023-04-25T00:41:38;8.30;99.90
7496;DHT22;3789;47.064;15.482;2023-04-25T00:44:16;8.20;99.90
7496;DHT22;3789;47.064;15.482;2023-04-25T00:46:50;8.20;99.90
7496;DHT22;3789;47.064;15.482;2023-04-25T00:49:23;8.20;99.90
7496;DHT22;3789;47.064;15.482;2023-04-25T00:51:51;8.10;99.90
7496;DHT22;3789;47.064;15.482;2023-04-25T00:54:21;8.00;99.90
7496;DHT22;3789;47.064;15.482;2023-04-25T00:56:49;8.00;99.90
7496;DHT22;3789;47.064;15.482;2023-04-25T00:59:21;7.90;99.90
7496;DHT22;3789;47.064;15.482;2023-04-25T01:01:49;8.00;99.90
7496;DHT22;3789;47.064;15.482;2023-04-25T01:04:21;8.00;99.90
7496;DHT22;3789;47.064;15.482;2023-04-25T01:06:52;8.00;99.90
7496;DHT22;3789;47.064;15.482;2023-04-25T01:09:21;8.00;99.90
7496;DHT22;3789;47.064;15.482;2023-04-25T01:11:52;8.00;99.90
7496;DHT22;3789;47.064;15.482;2023-04-25T01:14:19;7.90;99.90
7496;DHT22;3789;47.064;15.482;2023-04-25T01:16:50;7.90;99.90
7496;DHT22;3789;47.064;15.482;2023-04-25T01:19:21;7.90;99.90
7496;DHT22;3789;47.064;15.482;2023-04-25T01:21:52;7.80;99.90
7496;DHT22;3789;47.064;15.482;2023-04-25T01:24:33;7.90;99.90
7496;DHT22;3789;47.064;15.482;2023-04-25T01:27:02;7.90;99.90
7496;DHT22;3789;47.064;15.482;2023-04-25T01:29:36;7.90;99.90
7496;DHT22;3789;47.064;15.482;2023-04-25T01:32:05;7.90;99.90
7496;DHT22;3789;47.064;15.482;2023-04-25T01:34:37;7.90;99.90
7496;DHT22;3789;47.064;15.482;2023-04-25T01:37:08;7.80;99.90
7496;DHT22;3789;47.064;15.482;2023-04-25T01:39:38;7.80;99.90
7496;DHT22;3789;47.064;15.482;2023-04-25T01:42:15;7.80;99.90
7496;DHT22;3789;47.064;15.482;2023-04-25T01:44:50;7.70;99.90
7496;DHT22;3789;47.064;15.482;2023-04-25T01:47:18;7.70;99.90
7496;DHT22;3789;47.064;15.482;2023-04-25T01:49:48;7.60;99.90
7496;DHT22;3789;47.064;15.482;2023-04-25T01:52:17;7.60;99.90
7496;DHT22;3789;47.064;15.482;2023-04-25T01:54:59;7.60;99.90
7496;DHT22;3789;47.064;15.482;2023-04-25T01:57:29;7.50;99.90
7496;DHT22;3789;47.064;15.482;2023-04-25T02:00:05;7.50;99.90
7496;DHT22;3789;47.064;15.482;2023-04-25T02:02:37;7.40;99.90
7496;DHT22;3789;47.064;15.482;2023-04-25T02:05:06;7.40;99.90
7496;DHT22;3789;47.064;15.482;2023-04-25T02:07:37;7.40;99.90
7496;DHT22;3789;47.064;15.482;2023-04-25T02:10:09;7.30;99.90
7496;DHT22;3789;47.064;15.482;2023-04-25T02:12:40;7.20;99.90
7496;DHT22;3789;47.064;15.482;2023-04-25T02:15:09;7.00;99.90
7496;DHT22;3789;47.064;15.482;2023-04-25T02:17:41;7.00;99.90
7496;DHT22;3789;47.064;15.482;2023-04-25T02:20:22;7.00;99.90
7496;DHT22;3789;47.064;15.482;2023-04-25T02:22:55;7.10;99.90
7496;DHT22;3789;47.064;15.482;2023-04-25T02:25:26;7.20;99.90
7496;DHT22;3789;47.064;15.482;2023-04-25T02:28:02;7.10;99.90
7496;DHT22;3789;47.064;15.482;2023-04-25T02:30:33;7.10;99.90
7496;DHT22;3789;47.064;15.482;2023-04-25T02:33:05;7.00;99.90
7496;DHT22;3789;47.064;15.482;2023-04-25T02:35:34;7.00;99.90
7496;DHT22;3789;47.064;15.482;2023-04-25T02:38:03;7.00;99.90
7496;DHT22;3789;47.064;15.482;2023-04-25T02:40:31;7.00;99.90
7496;DHT22;3789;47.064;15.482;2023-04-25T02:43:02;7.00;99.90
7496;DHT22;3789;47.064;15.482;2023-04-25T02:45:32;6.90;99.90
7496;DHT22;3789;47.064;15.482;2023-04-25T02:48:03;6.90;99.90
7496;DHT22;3789;47.064;15.482;2023-04-25T02:50:32;6.90;99.90
7496;DHT22;3789;47.064;15.482;2023-04-25T02:53:01;6.80;99.90
7496;DHT22;3789;47.064;15.482;2023-04-25T02:55:29;6.70;99.90
7496;DHT22;3789;47.064;15.482;2023-04-25T02:57:57;6.60;99.90
7496;DHT22;3789;47.064;15.482;2023-04-25T03:00:26;6.60;99.90
7496;DHT22;3789;47.064;15.482;2023-04-25T03:02:58;6.60;99.90
7496;DHT22;3789;47.064;15.482;2023-04-25T03:05:28;6.50;99.90
7496;DHT22;3789;47.064;15.482;2023-04-25T03:07:57;6.50;99.90
7496;DHT22;3789;47.064;15.482;2023-04-25T03:10:27;6.50;99.90
7496;DHT22;3789;47.064;15.482;2023-04-25T03:12:56;6.50;99.90
7496;DHT22;3789;47.064;15.482;2023-04-25T03:15:27;6.50;99.90
7496;DHT22;3789;47.064;15.482;2023-04-25T03:17:57;6.50;99.90
7496;DHT22;3789;47.064;15.482;2023-04-25T03:20:33;6.50;99.90
7496;DHT22;3789;47.064;15.482;2023-04-25T03:23:09;6.50;99.90
7496;DHT22;3789;47.064;15.482;2023-04-25T03:25:39;6.50;99.90
7496;DHT22;3789;47.064;15.482;2023-04-25T03:28:10;6.60;99.90
7496;DHT22;3789;47.064;15.482;2023-04-25T03:30:40;6.60;99.90
7496;DHT22;3789;47.064;15.482;2023-04-25T03:33:11;6.50;99.90
7496;DHT22;3789;47.064;15.482;2023-04-25T03:35:39;6.50;99.90
7496;DHT22;3789;47.064;15.482;2023-04-25T03:38:10;6.30;99.90
7496;DHT22;3789;47.064;15.482;2023-04-25T03:40:40;6.10;99.90
7496;DHT22;3789;47.064;15.482;2023-04-25T03:43:09;6.00;99.90
7496;DHT22;3789;47.064;15.482;2023-04-25T03:45:38;6.00;99.90
7496;DHT22;3789;47.064;15.482;2023-04-25T03:48:07;6.00;99.90
7496;DHT22;3789;47.064;15.482;2023-04-25T03:50:36;6.10;99.90
7496;DHT22;3789;47.064;15.482;2023-04-25T03:53:08;6.20;99.90
7496;DHT22;3789;47.064;15.482;2023-04-25T03:55:35;6.30;99.90
7496;DHT22;3789;47.064;15.482;2023-04-25T03:58:06;6.30;99.90
7496;DHT22;3789;47.064;15.482;2023-04-25T04:00:36;6.30;99.90
7496;DHT22;3789;47.064;15.482;2023-04-25T04:03:05;6.20;99.90
7496;DHT22;3789;47.064;15.482;2023-04-25T04:05:35;6.20;99.90
7496;DHT22;3789;47.064;15.482;2023-04-25T04:08:05;6.20;99.90
7496;DHT22;3789;47.064;15.482;2023-04-25T04:10:38;6.30;99.90
7496;DHT22;3789;47.064;15.482;2023-04-25T04:13:07;6.20;99.90
7496;DHT22;3789;47.064;15.482;2023-04-25T04:15:36;6.10;99.90
7496;DHT22;3789;47.064;15.482;2023-04-25T04:18:12;6.10;99.90
7496;DHT22;3789;47.064;15.482;2023-04-25T04:20:49;6.00;99.90
7496;DHT22;3789;47.064;15.482;2023-04-25T04:23:16;5.90;99.90
7496;DHT22;3789;47.064;15.482;2023-04-25T04:25:45;6.00;99.90
7496;DHT22;3789;47.064;15.482;2023-04-25T04:28:16;6.40;99.90
7496;DHT22;3789;47.064;15.482;2023-04-25T04:30:46;6.60;99.90
7496;DHT22;3789;47.064;15.482;2023-04-25T04:33:23;7.20;99.90
7496;DHT22;3789;47.064;15.482;2023-04-25T04:35:55;8.30;99.90
7496;DHT22;3789;47.064;15.482;2023-04-25T04:38:34;9.40;99.90
7496;DHT22;3789;47.064;15.482;2023-04-25T04:41:09;10.40;99.90
7496;DHT22;3789;47.064;15.482;2023-04-25T04:43:39;10.60;99.90
7496;DHT22;3789;47.064;15.482;2023-04-25T04:46:07;9.80;99.90
7496;DHT22;3789;47.064;15.482;2023-04-25T04:48:38;10.50;99.90
7496;DHT22;3789;47.064;15.482;2023-04-25T04:51:18;11.50;99.90
7496;DHT22;3789;47.064;15.482;2023-04-25T04:53:45;11.50;99.90
7496;DHT22;3789;47.064;15.482;2023-04-25T04:56:18;11.40;99.90
7496;DHT22;3789;47.064;15.482;2023-04-25T04:58:50;11.30;99.90
7496;DHT22;3789;47.064;15.482;2023-04-25T05:01:21;11.50;99.90
7496;DHT22;3789;47.064;15.482;2023-04-25T05:03:50;12.90;99.90
7496;DHT22;3789;47.064;15.482;2023-04-25T05:06:19;13.80;99.90
7496;DHT22;3789;47.064;15.482;2023-04-25T05:08:49;15.50;99.90
7496;DHT22;3789;47.064;15.482;2023-04-25T05:11:17;16.60;99.90
7496;DHT22;3789;47.064;15.482;2023-04-25T05:13:47;16.20;99.90
7496;DHT22;3789;47.064;15.482;2023-04-25T05:16:21;15.60;99.90
7496;DHT22;3789;47.064;15.482;2023-04-25T05:18:49;14.30;99.90
7496;DHT22;3789;47.064;15.482;2023-04-25T05:21:18;14.60;99.90
7496;DHT22;3789;47.064;15.482;2023-04-25T05:23:47;15.80;99.90
7496;DHT22;3789;47.064;15.482;2023-04-25T05:26:18;18.00;99.90
7496;DHT22;3789;47.064;15.482;2023-04-25T05:28:52;19.60;99.90
7496;DHT22;3789;47.064;15.482;2023-04-25T05:31:29;20.30;99.90
7496;DHT22;3789;47.064;15.482;2023-04-25T05:34:06;19.90;99.80
7496;DHT22;3789;47.064;15.482;2023-04-25T05:36:36;20.80;98.90
7496;DHT22;3789;47.064;15.482;2023-04-25T05:39:11;21.40;97.30
7496;DHT22;3789;47.064;15.482;2023-04-25T05:41:46;22.30;95.10
7496;DHT22;3789;47.064;15.482;2023-04-25T05:44:15;22.20;95.70
7496;DHT22;3789;47.064;15.482;2023-04-25T05:46:45;22.50;94.60
7496;DHT22;3789;47.064;15.482;2023-04-25T05:49:16;23.50;93.60
7496;DHT22;3789;47.064;15.482;2023-04-25T05:51:53;24.80;91.40
7496;DHT22;3789;47.064;15.482;2023-04-25T05:54:22;25.90;90.50
7496;DHT22;3789;47.064;15.482;2023-04-25T05:56:51;27.00;87.20
7496;DHT22;3789;47.064;15.482;2023-04-25T05:59:22;27.50;84.00
7496;DHT22;3789;47.064;15.482;2023-04-25T06:01:50;27.70;80.10
7496;DHT22;3789;47.064;15.482;2023-04-25T06:04:25;27.70;79.40
7496;DHT22;3789;47.064;15.482;2023-04-25T06:06:57;28.20;79.70
7496;DHT22;3789;47.064;15.482;2023-04-25T06:09:24;28.50;77.10
7496;DHT22;3789;47.064;15.482;2023-04-25T06:11:54;29.00;75.70
7496;DHT22;3789;47.064;15.482;2023-04-25T06:14:24;29.60;73.20
7496;DHT22;3789;47.064;15.482;2023-04-25T06:16:56;29.50;74.80
7496;DHT22;3789;47.064;15.482;2023-04-25T06:19:25;29.70;72.60
7496;DHT22;3789;47.064;15.482;2023-04-25T06:21:57;29.80;72.20
7496;DHT22;3789;47.064;15.482;2023-04-25T06:24:27;29.90;70.40
7496;DHT22;3789;47.064;15.482;2023-04-25T06:26:58;29.60;69.00
7496;DHT22;3789;47.064;15.482;2023-04-25T06:29:28;28.90;71.30
7496;DHT22;3789;47.064;15.482;2023-04-25T06:31:57;29.20;70.30
7496;DHT22;3789;47.064;15.482;2023-04-25T06:34:30;29.60;68.90
7496;DHT22;3789;47.064;15.482;2023-04-25T06:37:01;29.50;68.40
7496;DHT22;3789;47.064;15.482;2023-04-25T06:39:38;29.30;69.50
7496;DHT22;3789;47.064;15.482;2023-04-25T06:42:15;29.40;66.70
7496;DHT22;3789;47.064;15.482;2023-04-25T06:44:44;29.00;68.60
7496;DHT22;3789;47.064;15.482;2023-04-25T06:47:15;29.50;69.10
7496;DHT22;3789;47.064;15.482;2023-04-25T06:49:44;30.10;67.60
7496;DHT22;3789;47.064;15.482;2023-04-25T06:52:11;30.50;66.40
7496;DHT22;3789;47.064;15.482;2023-04-25T06:54:42;30.40;66.20
7496;DHT22;3789;47.064;15.482;2023-04-25T06:57:11;29.30;64.70
7496;DHT22;3789;47.064;15.482;2023-04-25T06:59:46;27.10;70.60
7496;DHT22;3789;47.064;15.482;2023-04-25T07:02:14;25.20;71.50
7496;DHT22;3789;47.064;15.482;2023-04-25T07:04:51;23.60;78.00
7496;DHT22;3789;47.064;15.482;2023-04-25T07:07:27;22.40;81.80
7496;DHT22;3789;47.064;15.482;2023-04-25T07:10:04;21.60;81.40
7496;DHT22;3789;47.064;15.482;2023-04-25T07:12:44;20.90;77.00
7496;DHT22;3789;47.064;15.482;2023-04-25T07:15:22;20.20;81.90
7496;DHT22;3789;47.064;15.482;2023-04-25T07:17:55;19.90;79.60
7496;DHT22;3789;47.064;15.482;2023-04-25T07:20:36;19.70;84.60
7496;DHT22;3789;47.064;15.482;2023-04-25T07:23:19;19.80;83.30
7496;DHT22;3789;47.064;15.482;2023-04-25T07:26:03;20.00;84.60
7496;DHT22;3789;47.064;15.482;2023-04-25T07:28:46;20.00;84.80
7496;DHT22;3789;47.064;15.482;2023-04-25T07:31:32;20.10;85.00
7496;DHT22;3789;47.064;15.482;2023-04-25T07:34:29;20.10;88.70
7496;DHT22;3789;47.064;15.482;2023-04-25T07:37:14;20.00;89.10
7496;DHT22;3789;47.064;15.482;2023-04-25T07:40:01;20.20;89.50
7496;DHT22;3789;47.064;15.482;2023-04-25T07:43:01;20.40;85.50
7496;DHT22;3789;47.064;15.482;2023-04-25T07:45:49;20.60;84.90
7496;DHT22;3789;47.064;15.482;2023-04-25T07:48:31;20.90;76.30
7496;DHT22;3789;47.064;15.482;2023-04-25T07:51:16;21.00;75.40
7496;DHT22;3789;47.064;15.482;2023-04-25T07:54:34;21.40;76.90
7496;DHT22;3789;47.064;15.482;2023-04-25T07:57:20;21.50;75.20
7496;DHT22;3789;47.064;15.482;2023-04-25T07:59:55;21.70;74.00
7496;DHT22;3789;47.064;15.482;2023-04-25T08:02:23;21.90;74.30
7496;DHT22;3789;47.064;15.482;2023-04-25T08:04:55;22.10;71.60
7496;DHT22;3789;47.064;15.482;2023-04-25T08:07:24;22.20;72.20
7496;DHT22;3789;47.064;15.482;2023-04-25T08:09:54;21.90;74.70
7496;DHT22;3789;47.064;15.482;2023-04-25T08:12:24;21.90;70.10
7496;DHT22;3789;47.064;15.482;2023-04-25T08:15:05;21.90;71.70
7496;DHT22;3789;47.064;15.482;2023-04-25T08:17:39;22.10;70.80
7496;DHT22;3789;47.064;15.482;2023-04-25T08:20:10;22.20;69.50
7496;DHT22;3789;47.064;15.482;2023-04-25T08:22:45;22.20;74.50
7496;DHT22;3789;47.064;15.482;2023-04-25T08:25:12;22.30;69.80
7496;DHT22;3789;47.064;15.482;2023-04-25T08:27:41;22.40;69.80
7496;DHT22;3789;47.064;15.482;2023-04-25T08:30:09;22.50;67.40
7496;DHT22;3789;47.064;15.482;2023-04-25T08:32:50;22.60;66.40
7496;DHT22;3789;47.064;15.482;2023-04-25T08:35:26;22.30;69.90
7496;DHT22;3789;47.064;15.482;2023-04-25T08:37:54;22.20;67.70
7496;DHT22;3789;47.064;15.482;2023-04-25T08:40:24;22.40;64.30
7496;DHT22;3789;47.064;15.482;2023-04-25T08:43:01;22.20;67.10
7496;DHT22;3789;47.064;15.482;2023-04-25T08:45:32;21.70;64.00
7496;DHT22;3789;47.064;15.482;2023-04-25T08:48:03;21.30;65.60
7496;DHT22;3789;47.064;15.482;2023-04-25T08:50:49;21.20;69.40
7496;DHT22;3789;47.064;15.482;2023-04-25T08:53:34;21.40;70.90
7496;DHT22;3789;47.064;15.482;2023-04-25T08:56:07;21.40;64.40
7496;DHT22;3789;47.064;15.482;2023-04-25T08:58:41;21.20;66.50
7496;DHT22;3789;47.064;15.482;2023-04-25T09:01:25;20.90;66.60
7496;DHT22;3789;47.064;15.482;2023-04-25T09:03:54;20.60;67.00
7496;DHT22;3789;47.064;15.482;2023-04-25T09:06:25;20.20;67.60
7496;DHT22;3789;47.064;15.482;2023-04-25T09:09:07;19.80;67.40
7496;DHT22;3789;47.064;15.482;2023-04-25T09:11:41;19.60;68.00
7496;DHT22;3789;47.064;15.482;2023-04-25T09:14:22;19.60;67.60
7496;DHT22;3789;47.064;15.482;2023-04-25T09:17:05;19.60;73.30
7496;DHT22;3789;47.064;15.482;2023-04-25T09:19:40;19.80;70.00
7496;DHT22;3789;47.064;15.482;2023-04-25T09:22:14;19.90;65.20
7496;DHT22;3789;47.064;15.482;2023-04-25T09:24:45;20.00;68.00
7496;DHT22;3789;47.064;15.482;2023-04-25T09:27:21;19.90;68.50
7496;DHT22;3789;47.064;15.482;2023-04-25T09:30:00;19.90;65.40
7496;DHT22;3789;47.064;15.482;2023-04-25T09:32:30;19.80;65.00
7496;DHT22;3789;47.064;15.482;2023-04-25T09:34:59;19.70;67.50
7496;DHT22;3789;47.064;15.482;2023-04-25T09:37:35;19.90;67.00
7496;DHT22;3789;47.064;15.482;2023-04-25T09:40:06;19.90;67.00
7496;DHT22;3789;47.064;15.482;2023-04-25T09:42:42;19.90;63.90
7496;DHT22;3789;47.064;15.482;2023-04-25T09:45:13;19.90;66.30
7496;DHT22;3789;47.064;15.482;2023-04-25T09:47:43;19.90;65.90
7496;DHT22;3789;47.064;15.482;2023-04-25T09:50:17;19.90;67.30
7496;DHT22;3789;47.064;15.482;2023-04-25T09:53:02;20.00;69.50
7496;DHT22;3789;47.064;15.482;2023-04-25T09:55:35;20.20;67.30
7496;DHT22;3789;47.064;15.482;2023-04-25T09:58:08;20.50;66.80
7496;DHT22;3789;47.064;15.482;2023-04-25T10:00:41;20.60;67.40
7496;DHT22;3789;47.064;15.482;2023-04-25T10:03:11;20.70;65.90
7496;DHT22;3789;47.064;15.482;2023-04-25T10:05:49;20.60;65.50
7496;DHT22;3789;47.064;15.482;2023-04-25T10:08:27;20.40;62.70
7496;DHT22;3789;47.064;15.482;2023-04-25T10:11:07;20.10;64.70
7496;DHT22;3789;47.064;15.482;2023-04-25T10:13:36;20.00;69.40
7496;DHT22;3789;47.064;15.482;2023-04-25T10:16:07;20.20;72.10
7496;DHT22;3789;47.064;15.482;2023-04-25T10:18:41;20.50;67.50
7496;DHT22;3789;47.064;15.482;2023-04-25T10:21:19;20.70;67.90
7496;DHT22;3789;47.064;15.482;2023-04-25T10:23:54;20.80;64.50
7496;DHT22;3789;47.064;15.482;2023-04-25T10:26:23;21.00;65.60
7496;DHT22;3789;47.064;15.482;2023-04-25T10:29:02;21.00;63.70
7496;DHT22;3789;47.064;15.482;2023-04-25T10:31:46;21.00;65.30
7496;DHT22;3789;47.064;15.482;2023-04-25T10:34:42;21.00;65.10
7496;DHT22;3789;47.064;15.482;2023-04-25T10:37:14;20.80;63.60
7496;DHT22;3789;47.064;15.482;2023-04-25T10:39:43;20.60;65.40
7496;DHT22;3789;47.064;15.482;2023-04-25T10:42:13;20.40;62.10
7496;DHT22;3789;47.064;15.482;2023-04-25T10:45:09;20.30;63.90
7496;DHT22;3789;47.064;15.482;2023-04-25T10:47:43;20.40;69.70
7496;DHT22;3789;47.064;15.482;2023-04-25T10:50:15;20.30;68.40
7496;DHT22;3789;47.064;15.482;2023-04-25T10:52:50;20.20;67.70
7496;DHT22;3789;47.064;15.482;2023-04-25T10:55:22;20.00;66.70
7496;DHT22;3789;47.064;15.482;2023-04-25T10:57:54;19.90;62.80
7496;DHT22;3789;47.064;15.482;2023-04-25T11:00:30;19.90;63.80
7496;DHT22;3789;47.064;15.482;2023-04-25T11:03:24;19.80;63.70
7496;DHT22;3789;47.064;15.482;2023-04-25T11:05:55;19.70;67.80
7496;DHT22;3789;47.064;15.482;2023-04-25T11:08:50;19.80;66.90
7496;DHT22;3789;47.064;15.482;2023-04-25T11:11:22;19.70;65.10
7496;DHT22;3789;47.064;15.482;2023-04-25T11:13:53;19.70;66.70
7496;DHT22;3789;47.064;15.482;2023-04-25T11:16:27;19.80;67.70
7496;DHT22;3789;47.064;15.482;2023-04-25T11:19:03;19.70;67.40
7496;DHT22;3789;47.064;15.482;2023-04-25T11:21:31;19.40;68.30
7496;DHT22;3789;47.064;15.482;2023-04-25T11:24:07;19.10;69.90
7496;DHT22;3789;47.064;15.482;2023-04-25T11:26:48;19.00;71.00
7496;DHT22;3789;47.064;15.482;2023-04-25T11:29:16;18.70;66.70
7496;DHT22;3789;47.064;15.482;2023-04-25T11:31:44;17.90;65.90
7496;DHT22;3789;47.064;15.482;2023-04-25T11:34:19;17.40;64.30
7496;DHT22;3789;47.064;15.482;2023-04-25T11:36:48;16.80;65.20
7496;DHT22;3789;47.064;15.482;2023-04-25T11:39:24;16.60;66.60
7496;DHT22;3789;47.064;15.482;2023-04-25T11:42:01;16.30;68.10
7496;DHT22;3789;47.064;15.482;2023-04-25T11:44:38;15.50;65.60
7496;DHT22;3789;47.064;15.482;2023-04-25T11:47:08;15.20;68.10
7496;DHT22;3789;47.064;15.482;2023-04-25T11:49:39;15.10;71.10
7496;DHT22;3789;47.064;15.482;2023-04-25T11:52:08;15.00;71.10
7496;DHT22;3789;47.064;15.482;2023-04-25T11:54:47;15.00;69.80
7496;DHT22;3789;47.064;15.482;2023-04-25T11:57:22;15.10;70.60
7496;DHT22;3789;47.064;15.482;2023-04-25T11:59:49;15.30;70.60
7496;DHT22;3789;47.064;15.482;2023-04-25T12:02:26;15.60;71.50
7496;DHT22;3789;47.064;15.482;2023-04-25T12:05:08;16.10;72.40
7496;DHT22;3789;47.064;15.482;2023-04-25T12:08:20;16.40;72.40
7496;DHT22;3789;47.064;15.482;2023-04-25T12:10:54;16.70;74.10
7496;DHT22;3789;47.064;15.482;2023-04-25T12:13:31;16.90;71.80
7496;DHT22;3789;47.064;15.482;2023-04-25T12:16:04;17.10;72.10
7496;DHT22;3789;47.064;15.482;2023-04-25T12:18:35;17.20;71.20
7496;DHT22;3789;47.064;15.482;2023-04-25T12:21:09;17.20;69.50
7496;DHT22;3789;47.064;15.482;2023-04-25T12:23:39;17.30;69.80
7496;DHT22;3789;47.064;15.482;2023-04-25T12:26:08;17.30;69.60
7496;DHT22;3789;47.064;15.482;2023-04-25T12:28:44;17.10;68.50
7496;DHT22;3789;47.064;15.482;2023-04-25T12:31:20;16.60;66.80
7496;DHT22;3789;47.064;15.482;2023-04-25T12:33:58;16.60;70.40
7496;DHT22;3789;47.064;15.482;2023-04-25T12:36:35;17.00;73.40
7496;DHT22;3789;47.064;15.482;2023-04-25T12:39:05;17.30;71.30
7496;DHT22;3789;47.064;15.482;2023-04-25T12:41:37;17.50;71.30
7496;DHT22;3789;47.064;15.482;2023-04-25T12:44:14;17.90;70.50
7496;DHT22;3789;47.064;15.482;2023-04-25T12:46:43;18.20;73.20
7496;DHT22;3789;47.064;15.482;2023-04-25T12:49:13;18.40;70.50
7496;DHT22;3789;47.064;15.482;2023-04-25T12:51:45;18.70;72.90
7496;DHT22;3789;47.064;15.482;2023-04-25T12:54:15;18.90;69.80
7496;DHT22;3789;47.064;15.482;2023-04-25T12:56:47;19.10;68.00
7496;DHT22;3789;47.064;15.482;2023-04-25T12:59:15;19.30;65.60
7496;DHT22;3789;47.064;15.482;2023-04-25T13:01:47;19.30;65.30
7496;DHT22;3789;47.064;15.482;2023-04-25T13:04:17;19.40;66.70
7496;DHT22;3789;47.064;15.482;2023-04-25T13:06:49;19.40;68.70
7496;DHT22;3789;47.064;15.482;2023-04-25T13:09:18;19.50;66.50
7496;DHT22;3789;47.064;15.482;2023-04-25T13:11:45;19.50;69.40
7496;DHT22;3789;47.064;15.482;2023-04-25T13:14:17;19.50;71.30
7496;DHT22;3789;47.064;15.482;2023-04-25T13:16:54;19.20;72.10
7496;DHT22;3789;47.064;15.482;2023-04-25T13:19:32;19.00;72.50
7496;DHT22;3789;47.064;15.482;2023-04-25T13:22:02;19.00;76.10
7496;DHT22;3789;47.064;15.482;2023-04-25T13:24:31;18.90;73.80
7496;DHT22;3789;47.064;15.482;2023-04-25T13:27:03;18.80;72.10
7496;DHT22;3789;47.064;15.482;2023-04-25T13:29:31;18.80;71.50
7496;DHT22;3789;47.064;15.482;2023-04-25T13:32:02;18.70;70.80
7496;DHT22;3789;47.064;15.482;2023-04-25T13:34:40;18.70;69.80
7496;DHT22;3789;47.064;15.482;2023-04-25T13:37:11;18.50;72.10
7496;DHT22;3789;47.064;15.482;2023-04-25T13:39:40;18.50;73.30
7496;DHT22;3789;47.064;15.482;2023-04-25T13:42:09;18.60;73.10
7496;DHT22;3789;47.064;15.482;2023-04-25T13:44:39;18.60;71.40
7496;DHT22;3789;47.064;15.482;2023-04-25T13:47:08;18.50;70.40
7496;DHT22;3789;47.064;15.482;2023-04-25T13:49:45;18.50;69.40
7496;DHT22;3789;47.064;15.482;2023-04-25T13:52:19;18.40;71.70
7496;DHT22;3789;47.064;15.482;2023-04-25T13:54:51;18.40;73.60
7496;DHT22;3789;47.064;15.482;2023-04-25T13:57:19;18.30;71.80
7496;DHT22;3789;47.064;15.482;2023-04-25T13:59:50;18.30;72.50
7496;DHT22;3789;47.064;15.482;2023-04-25T14:02:17;18.30;71.40
7496;DHT22;3789;47.064;15.482;2023-04-25T14:04:47;18.30;71.70
7496;DHT22;3789;47.064;15.482;2023-04-25T14:07:17;18.30;72.10
7496;DHT22;3789;47.064;15.482;2023-04-25T14:09:52;18.20;73.20
7496;DHT22;3789;47.064;15.482;2023-04-25T14:12:21;18.00;72.40
7496;DHT22;3789;47.064;15.482;2023-04-25T14:14:50;18.00;69.60
7496;DHT22;3789;47.064;15.482;2023-04-25T14:17:21;17.90;70.80
7496;DHT22;3789;47.064;15.482;2023-04-25T14:19:50;17.90;70.70
7496;DHT22;3789;47.064;15.482;2023-04-25T14:22:17;18.00;72.40
7496;DHT22;3789;47.064;15.482;2023-04-25T14:24:46;18.00;73.20
7496;DHT22;3789;47.064;15.482;2023-04-25T14:27:14;18.00;74.40
7496;DHT22;3789;47.064;15.482;2023-04-25T14:29:43;18.00;74.90
7496;DHT22;3789;47.064;15.482;2023-04-25T14:32:15;17.90;74.50
7496;DHT22;3789;47.064;15.482;2023-04-25T14:34:45;17.90;74.20
7496;DHT22;3789;47.064;15.482;2023-04-25T14:37:26;17.80;73.20
7496;DHT22;3789;47.064;15.482;2023-04-25T14:39:54;17.60;74.20
7496;DHT22;3789;47.064;15.482;2023-04-25T14:42:32;17.50;74.60
7496;DHT22;3789;47.064;15.482;2023-04-25T14:45:04;17.40;75.90
7496;DHT22;3789;47.064;15.482;2023-04-25T14:47:44;17.40;74.30
7496;DHT22;3789;47.064;15.482;2023-04-25T14:50:22;17.20;73.30
7496;DHT22;3789;47.064;15.482;2023-04-25T14:52:56;17.00;76.40
7496;DHT22;3789;47.064;15.482;2023-04-25T14:55:30;16.80;78.10
7496;DHT22;3789;47.064;15.482;2023-04-25T14:58:00;16.60;78.50
7496;DHT22;3789;47.064;15.482;2023-04-25T15:00:29;16.50;77.20
7496;DHT22;3789;47.064;15.482;2023-04-25T15:03:02;16.50;75.90
7496;DHT22;3789;47.064;15.482;2023-04-25T15:05:30;16.50;76.00
7496;DHT22;3789;47.064;15.482;2023-04-25T15:07:58;16.40;77.20
7496;DHT22;3789;47.064;15.482;2023-04-25T15:10:28;16.50;76.70
7496;DHT22;3789;47.064;15.482;2023-04-25T15:12:59;16.50;77.30
7496;DHT22;3789;47.064;15.482;2023-04-25T15:15:29;16.50;79.80
7496;DHT22;3789;47.064;15.482;2023-04-25T15:17:59;16.20;76.60
7496;DHT22;3789;47.064;15.482;2023-04-25T15:20:28;15.80;78.20
7496;DHT22;3789;47.064;15.482;2023-04-25T15:22:57;15.90;77.40
7496;DHT22;3789;47.064;15.482;2023-04-25T15:25:26;15.90;75.70
7496;DHT22;3789;47.064;15.482;2023-04-25T15:27:56;16.00;77.00
7496;DHT22;3789;47.064;15.482;2023-04-25T15:30:26;16.10;75.10
7496;DHT22;3789;47.064;15.482;2023-04-25T15:32:54;16.20;75.00
7496;DHT22;3789;47.064;15.482;2023-04-25T15:35:23;16.20;74.80
7496;DHT22;3789;47.064;15.482;2023-04-25T15:37:51;16.30;75.60
7496;DHT22;3789;47.064;15.482;2023-04-25T15:40:21;16.30;74.40
7496;DHT22;3789;47.064;15.482;2023-04-25T15:42:57;16.30;70.30
7496;DHT22;3789;47.064;15.482;2023-04-25T15:45:27;16.20;70.00
7496;DHT22;3789;47.064;15.482;2023-04-25T15:47:57;16.10;71.80
7496;DHT22;3789;47.064;15.482;2023-04-25T15:50:27;16.00;71.90
7496;DHT22;3789;47.064;15.482;2023-04-25T15:52:56;15.90;70.30
7496;DHT22;3789;47.064;15.482;2023-04-25T15:55:23;15.90;72.60
7496;DHT22;3789;47.064;15.482;2023-04-25T15:57:54;15.80;70.10
7496;DHT22;3789;47.064;15.482;2023-04-25T16:00:24;15.70;71.40
7496;DHT22;3789;47.064;15.482;2023-04-25T16:02:58;15.70;72.10
7496;DHT22;3789;47.064;15.482;2023-04-25T16:05:26;15.70;72.60
7496;DHT22;3789;47.064;15.482;2023-04-25T16:07:57;15.80;70.10
7496;DHT22;3789;47.064;15.482;2023-04-25T16:10:32;15.80;69.10
7496;DHT22;3789;47.064;15.482;2023-04-25T16:13:02;15.70;67.90
7496;DHT22;3789;47.064;15.482;2023-04-25T16:15:35;15.70;69.30
7496;DHT22;3789;47.064;15.482;2023-04-25T16:18:06;15.70;68.10
7496;DHT22;3789;47.064;15.482;2023-04-25T16:20:35;15.70;67.90
7496;DHT22;3789;47.064;15.482;2023-04-25T16:23:04;15.60;70.10
7496;DHT22;3789;47.064;15.482;2023-04-25T16:25:35;15.60;69.50
7496;DHT22;3789;47.064;15.482;2023-04-25T16:28:02;15.40;68.30